createdAt,value
2017-09-18T00:01:09.365Z,52.23
2017-09-18T00:03:37.750Z,38.93
2017-09-18T00:06:06.150Z,22.20
2017-09-18T00:08:35.662Z,19.63
2017-09-18T00:11:04.806Z,37.83
2017-09-18T00:13:33.248Z,33.10
2017-09-18T00:16:02.741Z,35.43
2017-09-18T00:18:31.239Z,22.17
2017-09-18T00:20:59.659Z,31.03
2017-09-18T00:23:28.076Z,73.70
2017-09-18T00:25:56.496Z,45.90
2017-09-18T00:28:24.864Z,21.77
2017-09-18T00:30:53.760Z,120.67
2017-09-18T00:33:22.240Z,59.97
2017-09-18T00:35:50.609Z,91.17
2017-09-18T00:38:19.146Z,32.47
2017-09-18T00:40:47.586Z,83.57
2017-09-18T00:43:15.996Z,108.60
2017-09-18T00:45:44.803Z,146.40
2017-09-18T00:48:13.971Z,199.13
2017-09-18T00:50:42.458Z,102.90
2017-09-18T00:53:11.268Z,57.70
2017-09-18T00:55:39.721Z,142.53
2017-09-18T00:58:08.230Z,161.03
2017-09-18T01:00:36.752Z,168.20
2017-09-18T01:03:05.191Z,335.33
2017-09-18T01:05:33.591Z,239.43
2017-09-18T01:08:02.817Z,300.57
2017-09-18T01:10:31.269Z,266.40
2017-09-18T01:13:00.433Z,284.60
2017-09-18T01:15:28.838Z,249.83
2017-09-18T01:17:58.652Z,247.63
2017-09-18T01:20:27.855Z,525.53
2017-09-18T01:22:57.101Z,506.23
2017-09-18T01:25:25.508Z,608.03
2017-09-18T01:27:53.895Z,473.50
2017-09-18T01:30:22.343Z,506.67
2017-09-18T01:32:50.805Z,376.90
2017-09-18T01:35:19.266Z,323.50
2017-09-18T01:37:47.742Z,258.07
2017-09-18T01:40:16.146Z,185.87
2017-09-18T01:42:44.562Z,593.83
2017-09-18T01:45:13.037Z,178.60
2017-09-18T01:47:41.453Z,232.93
2017-09-18T01:50:10.606Z,274.00
2017-09-18T01:52:39.034Z,77.20
2017-09-18T01:55:08.197Z,54.60
2017-09-18T01:57:36.594Z,317.27
2017-09-18T02:00:05.386Z,171.27
2017-09-18T02:02:33.786Z,273.43
2017-09-18T02:05:02.156Z,131.37
2017-09-18T02:07:30.591Z,178.33
2017-09-18T02:09:58.988Z,153.43
2017-09-18T02:12:27.417Z,167.77
2017-09-18T02:14:55.926Z,361.73
2017-09-18T02:17:24.377Z,244.10
2017-09-18T02:19:53.011Z,268.67
2017-09-18T02:22:21.522Z,249.17
2017-09-18T02:24:50.708Z,305.43
2017-09-18T02:27:19.108Z,334.03
2017-09-18T02:29:47.518Z,156.73
2017-09-18T02:32:16.006Z,428.37
2017-09-18T02:34:44.400Z,545.20
2017-09-18T02:37:13.418Z,332.97
2017-09-18T02:39:41.781Z,470.10
2017-09-18T02:42:10.177Z,421.80
2017-09-18T02:44:39.365Z,518.57
2017-09-18T02:47:07.743Z,141.73
2017-09-18T02:49:36.136Z,301.07
2017-09-18T02:52:05.642Z,234.13
2017-09-18T02:54:34.806Z,386.93
2017-09-18T02:57:03.199Z,245.13
2017-09-18T02:59:31.625Z,242.30
2017-09-18T03:02:00.330Z,473.60
2017-09-18T03:04:29.013Z,141.27
2017-09-18T03:06:57.456Z,240.27
2017-09-18T03:09:26.802Z,343.67
2017-09-18T03:11:55.197Z,218.23
2017-09-18T03:14:23.711Z,383.00
2017-09-18T03:16:52.857Z,202.80
2017-09-18T03:19:21.257Z,128.63
2017-09-18T03:21:50.390Z,184.23
2017-09-18T03:24:19.538Z,245.20
2017-09-18T03:26:47.956Z,321.33
2017-09-18T03:29:17.172Z,345.37
2017-09-18T03:31:45.673Z,252.33
2017-09-18T03:34:14.109Z,332.23
2017-09-18T03:36:43.355Z,406.73
2017-09-18T03:39:11.876Z,418.07
2017-09-18T03:41:40.272Z,327.90
2017-09-18T03:44:09.476Z,237.13
2017-09-18T03:46:38.649Z,402.27
2017-09-18T03:49:07.022Z,290.53
2017-09-18T03:51:35.497Z,125.90
2017-09-18T03:54:03.915Z,207.53
2017-09-18T03:56:33.109Z,155.17
2017-09-18T03:59:02.467Z,119.50
2017-09-18T04:01:31.613Z,283.83
2017-09-18T04:04:01.107Z,130.37
2017-09-18T04:06:29.550Z,204.03
2017-09-18T04:08:58.750Z,207.03
2017-09-18T04:11:27.176Z,361.13
2017-09-18T04:13:56.877Z,140.07
2017-09-18T04:16:26.136Z,87.67
2017-09-18T04:18:54.547Z,173.10
2017-09-18T04:21:23.012Z,131.07
2017-09-18T04:23:51.631Z,225.90
2017-09-18T04:26:20.059Z,199.57
2017-09-18T04:28:48.520Z,110.13
2017-09-18T04:31:16.921Z,258.53
2017-09-18T04:33:45.360Z,144.90
2017-09-18T04:36:13.978Z,127.10
2017-09-18T04:38:42.379Z,34.27
2017-09-18T04:41:10.831Z,120.50
2017-09-18T04:43:39.277Z,138.87
2017-09-18T04:46:07.716Z,251.77
2017-09-18T04:48:36.154Z,116.97
2017-09-18T04:51:04.889Z,271.37
2017-09-18T04:53:33.335Z,230.17
2017-09-18T04:56:01.790Z,208.63
2017-09-18T04:58:30.320Z,180.73
2017-09-18T05:00:58.750Z,276.23
2017-09-18T05:03:27.914Z,168.63
2017-09-18T05:05:56.448Z,16.97
2017-09-18T05:08:24.871Z,496.23
2017-09-18T05:10:53.261Z,71.60
2017-09-18T05:13:22.037Z,453.67
2017-09-18T05:15:50.422Z,233.97
2017-09-18T05:18:18.859Z,197.77
2017-09-18T05:20:47.277Z,237.80
2017-09-18T05:23:15.749Z,14.40
2017-09-18T05:25:45.194Z,370.03
2017-09-18T05:28:14.075Z,304.97
2017-09-18T05:30:43.246Z,94.87
2017-09-18T05:33:11.696Z,34.07
2017-09-18T05:35:40.188Z,169.43
2017-09-18T05:38:09.081Z,56.50
2017-09-18T05:40:37.575Z,87.33
2017-09-18T05:43:06.502Z,209.03
2017-09-18T05:45:35.776Z,140.47
2017-09-18T05:48:04.334Z,187.03
2017-09-18T05:50:33.543Z,213.17
2017-09-18T05:53:02.692Z,146.27
2017-09-18T05:55:31.182Z,91.40
2017-09-18T05:57:59.628Z,105.93
2017-09-18T06:00:28.815Z,214.23
2017-09-18T06:02:57.240Z,62.00
2017-09-18T06:05:26.112Z,111.77
2017-09-18T06:07:55.526Z,68.03
2017-09-18T06:10:24.721Z,190.60
2017-09-18T06:12:53.199Z,40.47
2017-09-18T06:15:21.668Z,86.67
2017-09-18T06:17:50.815Z,112.57
2017-09-18T06:20:19.337Z,120.60
2017-09-18T06:22:48.547Z,101.67
2017-09-18T06:25:18.590Z,328.57
2017-09-18T06:27:47.517Z,76.10
2017-09-18T06:30:16.004Z,53.33
2017-09-18T06:32:44.436Z,72.77
2017-09-18T06:35:12.865Z,215.23
2017-09-18T06:37:41.338Z,107.17
2017-09-18T06:40:09.793Z,80.27
2017-09-18T06:42:38.333Z,111.17
2017-09-18T06:45:07.933Z,49.63
2017-09-18T06:47:36.327Z,67.57
2017-09-18T06:50:05.854Z,64.27
2017-09-18T06:52:34.265Z,60.23
2017-09-18T06:55:02.648Z,43.30
2017-09-18T06:57:31.135Z,54.23
2017-09-18T06:59:59.563Z,20.17
2017-09-18T07:02:28.040Z,24.03
2017-09-18T07:04:57.297Z,37.80
2017-09-18T07:07:25.660Z,33.30
2017-09-18T07:09:54.176Z,52.97
2017-09-18T07:12:22.854Z,19.90
2017-09-18T07:14:52.052Z,45.23
2017-09-18T07:17:20.459Z,34.70
2017-09-18T07:19:48.906Z,55.97
2017-09-18T07:22:17.457Z,48.47
2017-09-18T07:24:45.845Z,39.73
2017-09-18T07:27:14.337Z,29.73
2017-09-18T07:29:43.144Z,45.87
2017-09-18T07:32:11.602Z,42.37
2017-09-18T07:34:40.402Z,41.43
2017-09-18T07:37:08.797Z,39.07
2017-09-18T07:39:37.341Z,14.03
2017-09-18T07:42:06.034Z,35.87
2017-09-18T07:44:34.424Z,17.23
2017-09-18T07:47:03.880Z,34.50
2017-09-18T07:49:32.453Z,22.10
2017-09-18T07:52:00.894Z,31.80
2017-09-18T07:54:29.313Z,23.10
2017-09-18T07:56:58.586Z,23.30
2017-09-18T07:59:27.063Z,23.90
2017-09-18T08:01:55.480Z,24.90
2017-09-18T08:04:24.045Z,15.43
2017-09-18T08:06:53.191Z,21.73
2017-09-18T08:09:21.601Z,30.80
2017-09-18T08:11:50.095Z,27.07
2017-09-18T08:14:19.343Z,29.97
2017-09-18T08:16:47.859Z,30.70
2017-09-18T08:19:16.436Z,32.10
2017-09-18T08:21:44.894Z,28.83
2017-09-18T08:24:13.372Z,23.10
2017-09-18T08:26:41.965Z,18.37
2017-09-18T08:29:11.180Z,20.23
2017-09-18T08:31:40.019Z,11.37
2017-09-18T08:34:09.293Z,22.23
2017-09-18T08:36:38.567Z,17.60
2017-09-18T08:39:07.419Z,16.83
2017-09-18T08:41:36.240Z,16.90
2017-09-18T08:44:04.720Z,17.77
2017-09-18T08:46:33.190Z,26.40
2017-09-18T08:49:02.269Z,15.10
2017-09-18T08:51:30.728Z,12.80
2017-09-18T08:53:59.204Z,10.13
2017-09-18T08:56:30.211Z,11.83
2017-09-18T08:58:58.577Z,9.20
2017-09-18T09:01:27.060Z,9.43
2017-09-18T09:03:55.609Z,10.40
2017-09-18T09:06:24.037Z,14.40
2017-09-18T09:08:52.449Z,10.97
2017-09-18T09:11:21.849Z,16.93
2017-09-18T09:13:50.522Z,13.93
2017-09-18T09:16:19.723Z,12.60
2017-09-18T09:18:48.142Z,11.90
2017-09-18T09:21:16.569Z,14.73
2017-09-18T09:23:45.800Z,13.17
2017-09-18T09:26:14.424Z,14.43
2017-09-18T09:28:43.605Z,16.80
2017-09-18T09:31:12.104Z,16.57
2017-09-18T09:33:40.903Z,15.70
2017-09-18T09:36:09.423Z,12.20
2017-09-18T09:38:38.723Z,8.83
2017-09-18T09:41:08.038Z,10.27
2017-09-18T09:43:36.521Z,14.60
2017-09-18T09:46:05.098Z,15.13
2017-09-18T09:48:33.573Z,8.70
2017-09-18T09:51:02.115Z,9.03
2017-09-18T09:53:30.534Z,11.50
2017-09-18T09:55:59.083Z,11.83
2017-09-18T09:58:27.548Z,10.53
2017-09-18T10:00:56.020Z,9.70
2017-09-18T10:03:25.562Z,11.50
2017-09-18T10:05:54.171Z,13.93
2017-09-18T10:08:23.433Z,10.40
2017-09-18T10:10:51.900Z,10.80
2017-09-18T10:13:21.043Z,9.10
2017-09-18T10:15:50.594Z,7.40
2017-09-18T10:18:19.163Z,6.83
2017-09-18T10:20:47.611Z,9.37
2017-09-18T10:23:16.589Z,10.80
2017-09-18T10:25:45.022Z,13.50
2017-09-18T10:28:13.539Z,10.00
2017-09-18T10:30:42.974Z,14.10
2017-09-18T10:33:11.471Z,10.70
2017-09-18T10:35:40.230Z,9.83
2017-09-18T10:38:09.691Z,10.40
2017-09-18T10:40:38.345Z,10.37
2017-09-18T10:43:06.789Z,9.07
2017-09-18T10:45:35.333Z,8.50
2017-09-18T10:48:03.889Z,7.57
2017-09-18T10:50:32.314Z,12.03
2017-09-18T10:53:01.817Z,11.30
2017-09-18T10:55:30.414Z,9.73
2017-09-18T10:57:58.869Z,9.17
2017-09-18T11:00:27.410Z,9.07
2017-09-18T11:02:55.865Z,6.50
2017-09-18T11:05:24.343Z,11.43
2017-09-18T11:07:52.739Z,7.37
2017-09-18T11:10:22.606Z,10.27
2017-09-18T11:12:51.827Z,6.47
2017-09-18T11:15:20.242Z,6.00
2017-09-18T11:17:48.962Z,9.57
2017-09-18T11:20:17.360Z,11.77
2017-09-18T11:22:46.418Z,6.67
2017-09-18T11:25:15.823Z,6.43
2017-09-18T11:27:44.991Z,8.30
2017-09-18T11:30:14.511Z,7.30
2017-09-18T11:32:43.107Z,12.30
2017-09-18T11:35:11.608Z,9.67
2017-09-18T11:37:41.077Z,6.53
2017-09-18T11:40:09.509Z,7.77
2017-09-18T11:42:38.599Z,5.53
2017-09-18T11:45:07.938Z,9.57
2017-09-18T11:47:36.433Z,9.70
2017-09-18T11:50:05.696Z,5.77
2017-09-18T11:52:34.137Z,5.57
2017-09-18T11:55:04.419Z,8.07
2017-09-18T11:57:33.463Z,7.17
2017-09-18T12:00:01.910Z,11.37
2017-09-18T12:02:31.611Z,8.97
2017-09-18T12:05:00.016Z,5.43
2017-09-18T12:07:28.638Z,4.73
2017-09-18T12:09:57.244Z,10.00
2017-09-18T12:12:25.642Z,7.20
2017-09-18T12:14:54.830Z,7.77
2017-09-18T12:17:24.083Z,8.60
2017-09-18T12:19:52.684Z,4.60
2017-09-18T12:22:21.227Z,7.50
2017-09-18T12:24:50.200Z,10.57
2017-09-18T12:27:19.399Z,8.70
2017-09-18T12:29:48.609Z,6.23
2017-09-18T12:32:17.089Z,7.50
2017-09-18T12:34:46.263Z,5.10
2017-09-18T12:37:15.461Z,6.73
2017-09-18T12:39:45.196Z,4.33
2017-09-18T12:42:14.062Z,8.50
2017-09-18T12:44:45.524Z,5.37
2017-09-18T12:47:15.991Z,6.33
2017-09-18T12:49:44.690Z,7.80
2017-09-18T12:52:13.371Z,5.47
2017-09-18T12:54:41.944Z,4.10
2017-09-18T12:57:10.697Z,4.90
2017-09-18T12:59:39.855Z,3.83
2017-09-18T13:02:08.417Z,9.30
2017-09-18T13:04:37.039Z,8.30
2017-09-18T13:07:05.437Z,6.87
2017-09-18T13:09:34.058Z,5.13
2017-09-18T13:12:02.570Z,3.53
2017-09-18T13:14:31.083Z,3.17
2017-09-18T13:17:00.299Z,6.10
2017-09-18T13:19:29.584Z,6.33
2017-09-18T13:21:58.879Z,3.40
2017-09-18T13:24:28.276Z,3.80
2017-09-18T13:26:57.750Z,3.30
2017-09-18T13:29:26.192Z,5.03
2017-09-18T13:31:54.727Z,6.37
2017-09-18T13:34:23.280Z,4.90
2017-09-18T13:36:51.806Z,3.50
2017-09-18T13:39:21.041Z,4.43
2017-09-18T13:41:49.793Z,2.80
2017-09-18T13:44:18.374Z,3.60
2017-09-18T13:46:46.881Z,3.47
2017-09-18T13:49:15.376Z,4.50
2017-09-18T13:51:43.792Z,6.83
2017-09-18T13:54:12.572Z,2.40
2017-09-18T13:56:42.291Z,3.83
2017-09-18T13:59:11.505Z,3.23
2017-09-18T14:01:40.171Z,2.57
2017-09-18T14:04:08.566Z,3.30
2017-09-18T14:06:38.637Z,1.67
2017-09-18T14:09:07.324Z,1.87
2017-09-18T14:11:36.671Z,2.10
2017-09-18T14:14:05.853Z,4.03
2017-09-18T14:16:34.391Z,1.20
2017-09-18T14:19:02.746Z,2.70
2017-09-18T14:21:32.005Z,1.67
2017-09-18T14:24:00.647Z,1.80
2017-09-18T14:26:29.092Z,1.60
2017-09-18T14:28:58.290Z,3.43
2017-09-18T14:31:29.601Z,2.40
2017-09-18T14:33:58.010Z,5.27
2017-09-18T14:36:27.842Z,2.57
2017-09-18T14:38:57.721Z,1.83
2017-09-18T14:41:26.617Z,3.80
2017-09-18T14:43:55.798Z,3.27
2017-09-18T14:46:25.823Z,3.70
2017-09-18T14:48:54.280Z,2.07
2017-09-18T14:51:22.724Z,1.50
2017-09-18T14:53:51.587Z,0.77
2017-09-18T14:56:20.798Z,3.37
2017-09-18T14:58:49.744Z,2.50
2017-09-18T15:01:18.419Z,1.07
2017-09-18T15:03:47.605Z,3.17
2017-09-18T15:06:16.047Z,2.40
2017-09-18T15:08:44.494Z,2.53
2017-09-18T15:11:12.924Z,3.03
2017-09-18T15:13:42.131Z,2.10
2017-09-18T15:16:11.542Z,9.27
2017-09-18T15:18:40.280Z,3.00
2017-09-18T15:21:08.708Z,3.33
2017-09-18T15:23:37.266Z,12.93
2017-09-18T15:26:06.583Z,3.20
2017-09-18T15:28:36.100Z,3.73
2017-09-18T15:31:04.633Z,3.73
2017-09-18T15:33:33.040Z,1.73
2017-09-18T15:36:02.204Z,4.50
2017-09-18T15:38:30.846Z,3.70
2017-09-18T15:40:59.334Z,1.80
2017-09-18T15:43:27.802Z,2.50
2017-09-18T15:45:56.863Z,16.53
2017-09-18T15:48:25.283Z,2.37
2017-09-18T15:50:57.235Z,1.57
2017-09-18T15:53:25.658Z,4.20
2017-09-18T15:55:54.136Z,5.17
2017-09-18T15:58:22.615Z,3.97
2017-09-18T16:00:51.024Z,1.50
2017-09-18T16:03:19.826Z,2.40
2017-09-18T16:05:49.149Z,2.53
2017-09-18T16:08:18.410Z,4.83
2017-09-18T16:10:46.929Z,8.13
2017-09-18T16:13:16.163Z,3.00
2017-09-18T16:15:45.741Z,5.20
2017-09-18T16:18:14.610Z,3.40
2017-09-18T16:20:43.117Z,2.97
2017-09-18T16:23:11.608Z,3.40
2017-09-18T16:25:40.021Z,3.50
2017-09-18T16:28:08.607Z,3.07
2017-09-18T16:30:37.047Z,3.60
2017-09-18T16:33:05.450Z,2.60
2017-09-18T16:35:34.254Z,3.77
2017-09-18T16:38:02.688Z,1.80
2017-09-18T16:40:31.116Z,2.70
2017-09-18T16:42:59.622Z,3.03
2017-09-18T16:45:28.886Z,2.70
2017-09-18T16:47:57.706Z,1.97
2017-09-18T16:50:26.873Z,2.37
2017-09-18T16:52:55.581Z,3.33
2017-09-18T16:55:24.027Z,2.73
2017-09-18T16:57:52.629Z,2.60
2017-09-18T17:00:21.091Z,3.13
2017-09-18T17:02:49.481Z,2.53
2017-09-18T17:05:18.258Z,1.80
2017-09-18T17:07:46.663Z,2.93
2017-09-18T17:10:15.061Z,4.80
2017-09-18T17:12:44.585Z,1.97
2017-09-18T17:15:13.773Z,4.40
2017-09-18T17:17:42.960Z,2.63
2017-09-18T17:20:12.313Z,3.23
2017-09-18T17:22:41.508Z,4.93
2017-09-18T17:25:09.877Z,2.60
2017-09-18T17:27:38.353Z,4.70
2017-09-18T17:30:06.798Z,3.53
2017-09-18T17:32:36.118Z,3.70
2017-09-18T17:35:04.644Z,3.20
2017-09-18T17:37:33.061Z,5.70
2017-09-18T17:40:02.221Z,2.73
2017-09-18T17:42:30.751Z,4.73
2017-09-18T17:44:59.272Z,2.23
2017-09-18T17:47:27.642Z,3.37
2017-09-18T17:49:56.459Z,3.90
2017-09-18T17:52:24.882Z,4.67
2017-09-18T17:54:54.036Z,2.63
2017-09-18T17:57:22.863Z,3.40
2017-09-18T17:59:52.052Z,4.20
2017-09-18T18:02:22.032Z,3.47
2017-09-18T18:04:50.579Z,8.33
2017-09-18T18:07:19.076Z,2.73
2017-09-18T18:09:47.537Z,4.23
2017-09-18T18:12:16.021Z,5.13
2017-09-18T18:14:44.424Z,6.07
2017-09-18T18:17:12.823Z,5.97
2017-09-18T18:19:41.286Z,7.60
2017-09-18T18:22:09.794Z,4.20
2017-09-18T18:24:38.213Z,4.30
2017-09-18T18:27:07.805Z,5.90
2017-09-18T18:29:37.010Z,3.27
2017-09-18T18:32:06.260Z,2.87
2017-09-18T18:34:34.679Z,5.33
2017-09-18T18:37:03.272Z,9.13
2017-09-18T18:39:31.744Z,8.47
2017-09-18T18:42:01.109Z,8.40
2017-09-18T18:44:30.126Z,6.30
2017-09-18T18:46:59.360Z,7.40
2017-09-18T18:49:28.004Z,9.93
2017-09-18T18:51:56.665Z,6.93
2017-09-18T18:54:26.022Z,6.40
2017-09-18T18:56:54.620Z,7.27
2017-09-18T18:59:23.064Z,14.67
2017-09-18T19:01:52.817Z,14.90
2017-09-18T19:04:21.486Z,7.90
2017-09-18T19:06:50.661Z,6.37
2017-09-18T19:09:19.126Z,7.70
2017-09-18T19:11:47.697Z,5.43
2017-09-18T19:14:16.122Z,7.37
2017-09-18T19:16:45.370Z,8.00
2017-09-18T19:19:13.868Z,6.90
2017-09-18T19:21:42.309Z,7.00
2017-09-18T19:24:10.714Z,7.53
2017-09-18T19:26:39.438Z,7.60
2017-09-18T19:29:08.599Z,11.47
2017-09-18T19:31:37.006Z,11.60
2017-09-18T19:34:06.511Z,10.77
2017-09-18T19:36:35.658Z,14.57
2017-09-18T19:39:04.161Z,12.70
2017-09-18T19:41:32.703Z,13.90
2017-09-18T19:44:01.084Z,11.80
2017-09-18T19:46:29.476Z,9.80
2017-09-18T19:48:57.919Z,8.10
2017-09-18T19:51:27.209Z,10.83
2017-09-18T19:53:56.524Z,9.93
2017-09-18T19:56:25.041Z,9.80
2017-09-18T19:58:53.455Z,10.30
2017-09-18T20:01:21.867Z,12.97
2017-09-18T20:03:50.759Z,21.20
2017-09-18T20:06:20.013Z,15.33
2017-09-18T20:08:48.528Z,14.70
2017-09-18T20:11:17.164Z,18.33
2017-09-18T20:13:45.642Z,15.53
2017-09-18T20:16:14.107Z,15.97
2017-09-18T20:18:42.638Z,13.30
2017-09-18T20:21:11.087Z,13.70
2017-09-18T20:23:39.514Z,12.90
2017-09-18T20:26:08.998Z,14.67
2017-09-18T20:28:37.407Z,16.20
2017-09-18T20:31:06.562Z,16.53
2017-09-18T20:33:35.121Z,18.53
2017-09-18T20:36:04.499Z,13.80
2017-09-18T20:38:33.646Z,12.30
2017-09-18T20:41:02.209Z,14.00
2017-09-18T20:43:30.644Z,15.83
2017-09-18T20:45:59.837Z,16.07
2017-09-18T20:48:29.162Z,15.40
2017-09-18T20:50:57.617Z,11.03
2017-09-18T20:53:26.811Z,13.97
2017-09-18T20:55:55.751Z,12.47
2017-09-18T20:58:24.162Z,11.47
2017-09-18T21:00:52.732Z,11.70
2017-09-18T21:03:21.203Z,14.50
2017-09-18T21:05:49.623Z,14.00
2017-09-18T21:08:18.794Z,10.53
2017-09-18T21:10:47.268Z,10.37
2017-09-18T21:13:15.737Z,11.57
2017-09-18T21:15:44.180Z,12.73
2017-09-18T21:18:12.954Z,9.63
2017-09-18T21:20:41.355Z,15.67
2017-09-18T21:23:09.770Z,16.23
2017-09-18T21:25:38.218Z,15.33
2017-09-18T21:28:06.691Z,14.53
2017-09-18T21:30:35.846Z,16.50
2017-09-18T21:33:04.414Z,13.30
2017-09-18T21:35:33.721Z,12.47
2017-09-18T21:38:02.266Z,13.97
2017-09-18T21:40:30.689Z,16.87
2017-09-18T21:42:59.106Z,14.93
2017-09-18T21:45:28.297Z,14.93
2017-09-18T21:47:57.522Z,18.93
2017-09-18T21:50:25.962Z,14.67
2017-09-18T21:52:54.362Z,18.00
2017-09-18T21:55:23.554Z,15.70
2017-09-18T21:57:53.399Z,18.40
2017-09-18T22:00:21.775Z,14.43
2017-09-18T22:02:50.289Z,17.50
2017-09-18T22:05:18.739Z,18.03
2017-09-18T22:07:47.134Z,14.60
2017-09-18T22:10:15.600Z,16.40
2017-09-18T22:12:43.961Z,10.90
2017-09-18T22:15:12.546Z,15.77
2017-09-18T22:17:41.064Z,15.13
2017-09-18T22:20:09.441Z,12.93
2017-09-18T22:22:37.885Z,11.63
2017-09-18T22:25:06.421Z,13.07
2017-09-18T22:27:34.877Z,16.80
2017-09-18T22:30:03.448Z,12.50
2017-09-18T22:32:31.914Z,14.20
2017-09-18T22:35:00.304Z,18.70
2017-09-18T22:37:28.709Z,16.30
2017-09-18T22:39:57.532Z,14.77
2017-09-18T22:42:26.422Z,14.53
2017-09-18T22:44:55.605Z,14.10
2017-09-18T22:47:24.003Z,16.97
2017-09-18T22:49:53.263Z,14.53
2017-09-18T22:52:21.659Z,13.93
2017-09-18T22:54:50.096Z,11.90
2017-09-18T22:57:18.468Z,12.57
2017-09-18T22:59:47.388Z,11.77
2017-09-18T23:02:16.247Z,14.57
2017-09-18T23:04:44.754Z,14.77
2017-09-18T23:07:13.126Z,11.67
2017-09-18T23:09:41.880Z,12.37
2017-09-18T23:12:10.308Z,16.13
2017-09-18T23:14:38.691Z,15.67
2017-09-18T23:17:08.062Z,13.20
2017-09-18T23:19:37.228Z,14.40
2017-09-18T23:22:06.410Z,14.17
2017-09-18T23:24:34.956Z,14.30
2017-09-18T23:27:03.401Z,16.50
2017-09-18T23:29:32.572Z,10.90
2017-09-18T23:32:01.138Z,12.50
2017-09-18T23:34:29.534Z,13.30
2017-09-18T23:36:57.920Z,11.77
2017-09-18T23:39:26.321Z,15.10
2017-09-18T23:41:55.537Z,12.83
2017-09-18T23:44:23.932Z,18.90
2017-09-18T23:46:52.397Z,11.70
2017-09-18T23:49:20.772Z,17.57
2017-09-18T23:51:49.198Z,15.20
2017-09-18T23:54:17.831Z,16.47
2017-09-18T23:56:46.209Z,14.53
2017-09-18T23:59:14.633Z,14.47
